Time;durP1;ratioP1;P1;durP2;ratioP2;P2;SDS_P1;SDS_P2;PMS_P1;PMS_P2;Temp;Humidity;BMP_temperature;BMP_pressure;BME280_temperature;BME280_humidity;BME280_pressure;Samples;Min_cycle;Max_cycle;Signal;HPM_P1;HPM_P2
2022/01/16 00:04:06;;;;;;;39.30;20.38;;;4.70;86.90;;;;;;5015241;28;20045;-30
2022/01/16 00:06:33;;;;;;;36.35;18.13;;;4.70;87.00;;;;;;5014839;28;20100;-30
2022/01/16 00:08:58;;;;;;;37.33;18.50;;;4.60;86.90;;;;;;5014853;28;20038;-29
2022/01/16 00:11:24;;;;;;;36.45;18.02;;;4.70;87.00;;;;;;5014826;28;20026;-31
2022/01/16 00:13:51;;;;;;;40.42;18.65;;;4.70;87.10;;;;;;5014964;28;20073;-27
2022/01/16 00:16:17;;;;;;;37.90;19.17;;;4.70;87.00;;;;;;5014695;28;20026;-29
2022/01/16 00:18:52;;;;;;;39.58;20.70;;;4.60;86.80;;;;;;5014933;28;20433;-29
2022/01/16 00:21:39;;;;;;;41.47;18.77;;;4.60;86.90;;;;;;5014788;28;20022;-28
2022/01/16 00:24:06;;;;;;;39.45;19.23;;;4.50;87.00;;;;;;5014594;28;20033;-29
2022/01/16 00:26:32;;;;;;;37.83;18.83;;;4.50;87.00;;;;;;5014410;28;20036;-31
2022/01/16 00:28:58;;;;;;;56.15;22.23;;;4.50;87.00;;;;;;5014677;28;20517;-29
2022/01/16 00:31:24;;;;;;;42.33;20.02;;;4.50;87.00;;;;;;5014399;28;20053;-30
2022/01/16 00:33:50;;;;;;;46.80;20.48;;;4.40;86.80;;;;;;5014494;28;20425;-30
2022/01/16 00:36:18;;;;;;;42.60;20.35;;;4.40;87.00;;;;;;5014258;28;20037;-29
2022/01/16 00:38:46;;;;;;;45.47;20.83;;;4.40;87.20;;;;;;5014620;28;20025;-29
2022/01/16 00:41:13;;;;;;;60.33;21.80;;;4.40;87.00;;;;;;5014436;28;20470;-30
2022/01/16 00:43:39;;;;;;;46.75;20.85;;;4.40;87.20;;;;;;5014452;28;20045;-30
2022/01/16 00:46:05;;;;;;;51.28;22.85;;;4.40;87.20;;;;;;5014239;28;20029;-31
2022/01/16 00:48:30;;;;;;;40.13;20.17;;;4.40;87.20;;;;;;5014083;28;20030;-36
2022/01/16 00:50:56;;;;;;;43.60;22.55;;;4.40;87.20;;;;;;5014012;28;20033;-30
2022/01/16 00:53:21;;;;;;;50.88;22.92;;;4.40;87.30;;;;;;5014231;28;20028;-29
2022/01/16 00:55:47;;;;;;;40.80;20.80;;;4.50;87.30;;;;;;5014010;28;20466;-29
2022/01/16 00:58:13;;;;;;;48.97;21.60;;;4.50;87.20;;;;;;5013970;28;20022;-34
2022/01/16 01:00:39;;;;;;;40.72;20.38;;;4.50;87.20;;;;;;5013897;28;20026;-28
2022/01/16 01:03:08;;;;;;;43.13;22.30;;;4.50;87.20;;;;;;5013778;28;20053;-30
2022/01/16 01:05:35;;;;;;;57.45;23.65;;;4.50;87.00;;;;;;5014067;28;20037;-29
2022/01/16 01:08:02;;;;;;;53.28;23.92;;;4.50;87.00;;;;;;5014073;28;20064;-29
2022/01/16 01:10:34;;;;;;;46.08;21.90;;;4.40;86.90;;;;;;5013685;28;20081;-34
2022/01/16 01:13:10;;;;;;;50.47;23.30;;;4.30;87.10;;;;;;5013967;28;20113;-30
2022/01/16 01:15:49;;;;;;;44.03;22.08;;;4.30;87.20;;;;;;5013791;28;20458;-35
2022/01/16 01:18:16;;;;;;;40.80;21.02;;;4.30;87.40;;;;;;5013856;28;20394;-30
2022/01/16 01:20:43;;;;;;;65.45;24.25;;;4.30;87.50;;;;;;5012315;28;20493;-29
2022/01/16 01:23:09;;;;;;;54.97;22.35;;;4.30;87.30;;;;;;5013496;28;20021;-29
2022/01/16 01:25:36;;;;;;;51.72;22.52;;;4.20;87.20;;;;;;5013577;28;20034;-29
2022/01/16 01:28:01;;;;;;;50.70;22.92;;;4.20;87.30;;;;;;5013522;28;20026;-29
2022/01/16 01:30:27;;;;;;;49.92;22.02;;;4.10;87.40;;;;;;5013437;28;20117;-30
2022/01/16 01:32:54;;;;;;;37.85;20.42;;;4.00;87.30;;;;;;5013374;28;20478;-28
2022/01/16 01:35:21;;;;;;;42.75;19.08;;;4.00;87.50;;;;;;5013049;28;20046;-30
2022/01/16 01:37:47;;;;;;;46.65;20.42;;;3.90;87.60;;;;;;5013424;28;20529;-29
2022/01/16 01:40:16;;;;;;;40.80;19.23;;;3.90;87.70;;;;;;5013307;28;20101;-33
2022/01/16 01:42:45;;;;;;;41.97;19.05;;;3.90;87.60;;;;;;5013355;28;20061;-28
2022/01/16 01:53:25;;;;;;;30.80;16.58;;;3.90;87.80;;;;;;5013132;28;19967;-30
2022/01/16 01:55:50;;;;;;;41.75;18.55;;;4.00;88.00;;;;;;5013405;28;20022;-29
2022/01/16 01:58:16;;;;;;;36.42;16.88;;;4.00;87.80;;;;;;5012763;28;20040;-35
2022/01/16 02:00:42;;;;;;;35.80;18.55;;;4.00;87.90;;;;;;5013102;28;20061;-29
2022/01/16 02:05:42;;;;;;;36.65;17.60;;;4.10;87.80;;;;;;5013383;28;20100;-30
2022/01/16 02:08:08;;;;;;;46.83;19.75;;;4.10;87.80;;;;;;5013008;28;20109;-36
2022/01/16 02:10:36;;;;;;;42.25;18.83;;;4.10;87.70;;;;;;5013094;28;20118;-30
2022/01/16 02:13:05;;;;;;;39.05;17.23;;;4.10;87.80;;;;;;5012976;28;20030;-29
2022/01/16 02:31:58;;;;;;;30.75;16.60;;;4.10;88.00;;;;;;5013154;28;20351;-30
2022/01/16 02:34:41;;;;;;;32.42;16.73;;;4.10;88.00;;;;;;5012751;28;20048;-33
2022/01/16 02:37:10;;;;;;;38.38;16.83;;;4.20;88.00;;;;;;5012761;28;20566;-31
2022/01/16 02:39:40;;;;;;;42.17;17.20;;;4.20;87.90;;;;;;5012764;28;20018;-34
2022/01/16 02:42:07;;;;;;;32.25;16.83;;;4.30;87.80;;;;;;5012785;28;20101;-30
2022/01/16 02:44:42;;;;;;;31.77;16.38;;;4.30;87.80;;;;;;5012678;28;20022;-30
2022/01/16 02:47:11;;;;;;;34.55;16.55;;;4.30;87.80;;;;;;5012989;28;20026;-30
2022/01/16 02:49:40;;;;;;;37.75;16.33;;;4.30;87.80;;;;;;5012587;28;20026;-30
2022/01/16 02:52:10;;;;;;;34.85;17.27;;;4.40;87.80;;;;;;5012907;28;20036;-29
2022/01/16 02:54:38;;;;;;;33.92;16.58;;;4.40;87.70;;;;;;5012588;28;20113;-29
2022/01/16 02:57:10;;;;;;;33.00;15.93;;;4.40;87.70;;;;;;5012837;28;20050;-31
2022/01/16 02:59:36;;;;;;;33.53;16.80;;;4.40;87.70;;;;;;5012661;28;20033;-29
2022/01/16 03:02:03;;;;;;;37.78;18.05;;;4.40;87.70;;;;;;5012472;28;20466;-35
2022/01/16 03:04:29;;;;;;;43.97;18.33;;;4.40;87.70;;;;;;5012431;28;20026;-29
2022/01/16 03:06:58;;;;;;;32.17;17.15;;;4.40;87.70;;;;;;5012361;28;20029;-30
2022/01/16 03:09:24;;;;;;;32.72;17.17;;;4.40;87.60;;;;;;5011707;28;20034;-29
2022/01/16 03:11:50;;;;;;;33.80;16.55;;;4.50;87.70;;;;;;5016143;28;20026;-29
2022/01/16 03:14:19;;;;;;;33.50;16.08;;;4.50;87.70;;;;;;5015999;28;20433;-31
2022/01/16 03:16:49;;;;;;;38.95;18.83;;;4.50;87.70;;;;;;5015869;28;20084;-29
2022/01/16 03:22:03;;;;;;;34.05;17.23;;;4.50;87.60;;;;;;5015904;28;20040;-29
2022/01/16 03:24:32;;;;;;;34.88;16.95;;;4.40;87.70;;;;;;5015831;28;20060;-29
2022/01/16 03:27:04;;;;;;;41.03;16.65;;;4.50;87.80;;;;;;5015647;28;20037;-29
2022/01/16 03:29:30;;;;;;;38.38;16.58;;;4.50;87.80;;;;;;5015671;28;20493;-30
2022/01/16 03:31:57;;;;;;;36.42;15.82;;;4.50;87.70;;;;;;5015363;28;20108;-30
2022/01/16 03:34:23;;;;;;;43.20;17.38;;;4.50;87.80;;;;;;5015219;28;20046;-29
2022/01/16 03:36:49;;;;;;;39.85;16.95;;;4.50;87.80;;;;;;5015492;28;20022;-29
2022/01/16 03:39:15;;;;;;;38.75;16.70;;;4.50;87.80;;;;;;5015353;28;20076;-29
2022/01/16 03:41:41;;;;;;;39.03;16.90;;;4.50;87.70;;;;;;5014425;28;20403;-30
2022/01/16 03:44:07;;;;;;;32.95;15.77;;;4.50;87.80;;;;;;5015344;28;20061;-29
2022/01/16 03:46:37;;;;;;;44.42;15.60;;;4.50;87.80;;;;;;5015268;28;20482;-30
2022/01/16 03:49:07;;;;;;;38.00;16.48;;;4.50;87.80;;;;;;5015268;28;20381;-28
2022/01/16 03:51:33;;;;;;;38.47;16.15;;;4.60;87.90;;;;;;5015438;28;20109;-29
2022/01/16 03:53:59;;;;;;;43.00;17.02;;;4.60;87.80;;;;;;5015046;28;20069;-29
2022/01/16 03:56:25;;;;;;;38.45;16.65;;;4.60;87.80;;;;;;5015046;28;20045;-28
2022/01/16 03:58:51;;;;;;;43.83;16.77;;;4.60;87.60;;;;;;5015079;28;20024;-31
2022/01/16 04:01:17;;;;;;;43.90;16.90;;;4.60;87.70;;;;;;5014931;28;20072;-30
2022/01/16 04:03:42;;;;;;;43.30;18.25;;;4.60;87.70;;;;;;5015002;28;20022;-29
2022/01/16 04:06:08;;;;;;;40.50;17.23;;;4.60;87.70;;;;;;5014991;28;20088;-34
2022/01/16 04:08:34;;;;;;;39.78;16.83;;;4.60;87.80;;;;;;5014792;28;20018;-30
2022/01/16 04:11:00;;;;;;;45.45;16.60;;;4.60;87.80;;;;;;5014724;28;20026;-30
2022/01/16 04:13:26;;;;;;;44.72;17.92;;;4.60;87.80;;;;;;5014732;28;20350;-28
2022/01/16 04:15:52;;;;;;;39.20;16.08;;;4.60;87.80;;;;;;5014651;28;20033;-29
2022/01/16 04:18:17;;;;;;;38.63;16.08;;;4.70;87.80;;;;;;5014511;28;20029;-29
2022/01/16 04:20:43;;;;;;;39.45;17.35;;;4.70;87.80;;;;;;5014196;28;20014;-30
2022/01/16 04:23:10;;;;;;;41.92;16.85;;;4.70;87.90;;;;;;5014449;28;20093;-30
2022/01/16 04:25:36;;;;;;;36.05;17.13;;;4.70;87.80;;;;;;5014494;28;20044;-30
2022/01/16 04:28:03;;;;;;;34.10;17.10;;;4.70;87.80;;;;;;5014400;28;20026;-29
2022/01/16 04:30:29;;;;;;;37.03;17.85;;;4.70;87.70;;;;;;5014636;28;20477;-29
2022/01/16 04:32:54;;;;;;;39.08;17.85;;;4.70;87.70;;;;;;5014277;28;20105;-29
2022/01/16 04:35:20;;;;;;;34.20;16.98;;;4.70;87.70;;;;;;5014152;28;20042;-29
2022/01/16 04:37:46;;;;;;;38.30;17.85;;;4.70;87.70;;;;;;5014323;28;20482;-30
2022/01/16 04:40:12;;;;;;;33.92;17.25;;;4.70;87.70;;;;;;5012825;28;20121;-30
2022/01/16 04:45:22;;;;;;;35.00;17.27;;;4.70;87.60;;;;;;5014117;28;20041;-30
2022/01/16 04:47:50;;;;;;;35.35;17.85;;;4.70;87.70;;;;;;5014043;28;20022;-29
2022/01/16 04:50:16;;;;;;;36.40;17.35;;;4.70;87.70;;;;;;5013949;28;20033;-29
2022/01/16 04:52:44;;;;;;;37.08;18.45;;;4.70;87.70;;;;;;5014013;28;20022;-29
2022/01/16 04:55:12;;;;;;;40.38;20.45;;;4.70;87.70;;;;;;5014065;28;20497;-30
2022/01/16 04:57:37;;;;;;;38.78;19.10;;;4.70;87.70;;;;;;5014041;28;20021;-31
2022/01/16 05:00:06;;;;;;;41.28;18.77;;;4.70;87.70;;;;;;5013880;28;20406;-30
2022/01/16 05:02:32;;;;;;;35.22;17.33;;;4.70;87.70;;;;;;5013847;28;20029;-31
2022/01/16 05:04:57;;;;;;;35.17;17.92;;;4.60;87.70;;;;;;5014009;28;20414;-30
2022/01/16 05:07:23;;;;;;;34.90;17.77;;;4.70;87.70;;;;;;5013815;28;20148;-29
2022/01/16 05:09:48;;;;;;;36.75;17.85;;;4.70;87.70;;;;;;5013782;28;20029;-31
2022/01/16 05:12:24;;;;;;;35.17;18.13;;;4.70;88.30;;;;;;5013622;28;20087;-30
2022/01/16 05:17:34;;;;;;;33.95;18.55;;;4.80;87.70;;;;;;5013783;28;20052;-31
2022/01/16 05:19:59;;;;;;;40.35;19.75;;;4.80;87.60;;;;;;5013604;28;20017;-29
2022/01/16 05:22:25;;;;;;;35.40;18.80;;;4.80;87.50;;;;;;5013511;28;20127;-29
2022/01/16 05:24:51;;;;;;;37.25;19.42;;;4.80;87.60;;;;;;5013445;28;20096;-28
2022/01/16 05:27:17;;;;;;;38.00;19.75;;;4.80;88.10;;;;;;5013672;28;20030;-29
2022/01/16 05:29:43;;;;;;;37.95;20.83;;;4.80;87.50;;;;;;5012174;28;20026;-29
2022/01/16 05:32:08;;;;;;;43.17;21.92;;;4.80;87.50;;;;;;5012685;28;20061;-29
2022/01/16 05:34:34;;;;;;;42.00;21.40;;;4.70;87.40;;;;;;5013104;28;20042;-30
2022/01/16 05:36:59;;;;;;;41.65;21.20;;;4.70;87.50;;;;;;5012067;28;20050;-29
2022/01/16 05:39:25;;;;;;;39.75;20.80;;;4.70;87.60;;;;;;5013322;28;20026;-31
2022/01/16 05:41:51;;;;;;;40.58;21.13;;;4.70;87.60;;;;;;5013228;28;20029;-33
2022/01/16 05:44:16;;;;;;;40.40;21.48;;;4.70;87.60;;;;;;5013199;28;20026;-32
2022/01/16 05:46:43;;;;;;;40.65;21.45;;;4.80;87.60;;;;;;5013255;28;20156;-31
2022/01/16 05:49:08;;;;;;;39.47;20.40;;;4.70;87.60;;;;;;5013160;28;20497;-33
2022/01/16 05:51:34;;;;;;;40.50;21.55;;;4.80;87.60;;;;;;5013071;28;20033;-29
2022/01/16 05:57:21;;;;;;;38.63;20.38;;;4.80;87.50;;;;;;5013215;28;20073;-29
2022/01/16 05:59:47;;;;;;;36.05;20.02;;;4.80;87.50;;;;;;5013039;28;20414;-30
2022/01/16 06:02:13;;;;;;;40.53;20.42;;;4.80;87.50;;;;;;5012998;28;20058;-29
2022/01/16 06:04:38;;;;;;;41.50;21.88;;;4.80;87.50;;;;;;5013201;28;20029;-29
2022/01/16 06:07:05;;;;;;;39.22;21.35;;;4.80;87.40;;;;;;5013235;28;20371;-28
2022/01/16 06:09:31;;;;;;;43.35;22.10;;;4.80;87.50;;;;;;5028172;28;20053;-30
2022/01/16 06:11:57;;;;;;;43.28;23.08;;;4.80;87.50;;;;;;5013007;28;20493;-29
2022/01/16 06:14:23;;;;;;;43.35;22.67;;;4.80;87.50;;;;;;5012996;28;20088;-30
2022/01/16 06:16:53;;;;;;;46.72;23.92;;;4.80;87.50;;;;;;5012950;28;20030;-29
2022/01/16 06:19:19;;;;;;;44.78;23.33;;;4.80;88.20;;;;;;5012932;28;20018;-30
2022/01/16 06:21:46;;;;;;;43.97;22.17;;;4.80;87.60;;;;;;5012947;28;20100;-29
2022/01/16 06:24:12;;;;;;;51.80;25.95;;;4.80;87.60;;;;;;5012838;28;20492;-30
2022/01/16 06:26:38;;;;;;;49.83;23.13;;;4.80;87.60;;;;;;5012706;28;20116;-33
2022/01/16 06:29:04;;;;;;;47.45;24.67;;;4.70;87.50;;;;;;5012825;28;20098;-30
2022/01/16 06:31:31;;;;;;;45.58;22.33;;;4.80;87.60;;;;;;5012620;28;20026;-29
2022/01/16 06:33:59;;;;;;;42.53;23.50;;;4.80;87.60;;;;;;5012853;28;20497;-28
2022/01/16 06:36:25;;;;;;;46.75;25.65;;;4.80;87.60;;;;;;5012647;28;20018;-29
2022/01/16 06:38:52;;;;;;;44.38;23.73;;;4.80;87.50;;;;;;5011517;28;20029;-28
2022/01/16 06:41:18;;;;;;;45.72;24.15;;;4.80;87.50;;;;;;5012688;28;20149;-29
2022/01/16 06:43:44;;;;;;;48.65;25.77;;;4.80;87.50;;;;;;5013588;28;20054;-31
2022/01/16 06:46:09;;;;;;;49.58;24.58;;;4.80;87.50;;;;;;5016406;28;20029;-30
2022/01/16 06:48:35;;;;;;;46.45;24.63;;;4.70;87.50;;;;;;5016321;28;20029;-30
2022/01/16 06:51:01;;;;;;;49.33;25.05;;;4.80;87.60;;;;;;5016470;28;20467;-29
2022/01/16 06:53:27;;;;;;;44.65;24.05;;;4.80;87.60;;;;;;5016313;28;20029;-29
2022/01/16 06:55:52;;;;;;;46.53;24.33;;;4.80;87.60;;;;;;5031387;28;20112;-29
2022/01/16 06:58:18;;;;;;;48.03;25.75;;;4.80;87.60;;;;;;5016094;28;20022;-30
2022/01/16 07:00:43;;;;;;;47.47;25.98;;;4.80;87.60;;;;;;5016412;28;20056;-32
2022/01/16 07:03:09;;;;;;;45.55;24.23;;;4.80;87.50;;;;;;5015989;28;20022;-29
2022/01/16 07:05:35;;;;;;;50.13;25.65;;;4.80;87.50;;;;;;5016164;28;20054;-31
2022/01/16 07:08:00;;;;;;;45.85;25.73;;;4.80;87.50;;;;;;5015972;28;20022;-30
2022/01/16 07:10:26;;;;;;;48.22;26.52;;;4.80;87.50;;;;;;5016009;28;20026;-28
2022/01/16 07:12:51;;;;;;;52.05;28.00;;;4.80;87.60;;;;;;5016044;28;20025;-29
2022/01/16 07:15:17;;;;;;;46.38;26.33;;;4.70;87.50;;;;;;5015770;28;20030;-29
2022/01/16 07:17:43;;;;;;;50.08;27.25;;;4.70;87.60;;;;;;5015891;28;20014;-29
2022/01/16 07:20:09;;;;;;;49.45;26.80;;;4.70;87.60;;;;;;5015815;28;20029;-31
2022/01/16 07:22:35;;;;;;;46.00;25.50;;;4.70;87.70;;;;;;5015914;28;20032;-29
2022/01/16 07:25:00;;;;;;;49.60;26.58;;;4.70;87.70;;;;;;5015640;28;20338;-30
2022/01/16 07:27:26;;;;;;;46.83;27.48;;;4.70;87.80;;;;;;5016012;28;20434;-29
2022/01/16 07:29:52;;;;;;;45.35;25.90;;;4.70;87.70;;;;;;5015683;28;20030;-29
2022/01/16 07:32:17;;;;;;;48.42;26.60;;;4.70;87.80;;;;;;5015739;28;20036;-29
2022/01/16 07:34:43;;;;;;;48.30;27.23;;;4.80;88.40;;;;;;5015385;28;20476;-30
2022/01/16 07:37:08;;;;;;;44.38;26.52;;;4.80;87.70;;;;;;5015464;28;20022;-29
2022/01/16 07:39:36;;;;;;;45.72;27.63;;;4.80;87.70;;;;;;5014097;28;20022;-30
2022/01/16 07:42:03;;;;;;;49.38;28.75;;;4.70;87.70;;;;;;5015343;28;20022;-29
2022/01/16 07:44:29;;;;;;;44.40;25.65;;;4.70;87.80;;;;;;5015207;28;20030;-30
2022/01/16 07:46:54;;;;;;;48.88;26.70;;;4.70;88.00;;;;;;5015241;28;20033;-32
2022/01/16 07:49:20;;;;;;;49.97;28.23;;;4.70;88.00;;;;;;5015243;28;20394;-31
2022/01/16 07:51:45;;;;;;;45.97;26.33;;;4.70;88.00;;;;;;5015193;28;20075;-28
2022/01/16 07:54:11;;;;;;;44.47;24.77;;;4.70;88.00;;;;;;5014962;28;20029;-29
2022/01/16 07:56:36;;;;;;;45.53;25.67;;;4.70;88.00;;;;;;5014511;28;20028;-29
2022/01/16 07:59:02;;;;;;;37.60;23.45;;;4.70;88.00;;;;;;5015048;28;20103;-28
2022/01/16 08:01:28;;;;;;;40.20;24.83;;;4.70;88.20;;;;;;5014923;28;20168;-29
2022/01/16 08:03:53;;;;;;;42.28;23.80;;;4.80;88.30;;;;;;5015110;28;20030;-31
2022/01/16 08:06:19;;;;;;;42.63;23.98;;;4.80;88.20;;;;;;5014934;28;20018;-31
2022/01/16 08:08:44;;;;;;;38.45;23.88;;;4.90;88.30;;;;;;5014874;28;20029;-30
2022/01/16 08:11:10;;;;;;;38.00;22.80;;;4.90;88.30;;;;;;5014828;28;20050;-29
2022/01/16 08:13:37;;;;;;;39.38;22.45;;;4.90;88.30;;;;;;5014919;28;20026;-30
2022/01/16 08:16:03;;;;;;;39.85;24.90;;;4.90;88.20;;;;;;5014633;28;20057;-30
2022/01/16 08:18:29;;;;;;;36.65;22.35;;;4.90;88.20;;;;;;5014731;28;20108;-34
2022/01/16 08:20:54;;;;;;;39.40;22.05;;;5.00;88.30;;;;;;5014839;28;20508;-31
2022/01/16 08:23:20;;;;;;;34.65;21.25;;;5.00;88.20;;;;;;5014632;28;20022;-29
2022/01/16 08:25:46;;;;;;;35.92;22.52;;;5.00;88.20;;;;;;5014705;28;20041;-30
2022/01/16 08:28:11;;;;;;;35.10;22.02;;;5.10;88.20;;;;;;5014608;28;20026;-29
2022/01/16 08:30:37;;;;;;;34.20;20.85;;;5.10;88.10;;;;;;5014491;28;20101;-29
2022/01/16 08:33:03;;;;;;;32.17;19.65;;;5.10;88.10;;;;;;5014598;28;20026;-32
2022/01/16 08:35:28;;;;;;;32.75;20.92;;;5.20;88.20;;;;;;5014244;28;20049;-29
2022/01/16 08:37:54;;;;;;;35.17;21.98;;;5.20;88.20;;;;;;5014324;28;20104;-31
2022/01/16 08:40:20;;;;;;;32.90;20.92;;;5.20;88.10;;;;;;5029430;28;20067;-30
2022/01/16 08:42:45;;;;;;;36.58;20.70;;;5.20;88.10;;;;;;5014549;28;20018;-29
2022/01/16 08:45:11;;;;;;;32.00;20.58;;;5.20;88.10;;;;;;5014431;28;20026;-29
2022/01/16 08:47:37;;;;;;;30.45;19.38;;;5.30;88.10;;;;;;5014155;28;20084;-28
2022/01/16 08:50:05;;;;;;;28.08;18.42;;;5.40;88.10;;;;;;5014390;28;20491;-28
2022/01/16 08:52:31;;;;;;;31.58;20.10;;;5.40;88.00;;;;;;5014365;28;20117;-33
2022/01/16 08:54:57;;;;;;;35.90;21.35;;;5.50;88.00;;;;;;5014080;28;20482;-29
2022/01/16 08:57:22;;;;;;;31.45;20.13;;;5.50;87.90;;;;;;5014011;28;20388;-30
2022/01/16 08:59:48;;;;;;;33.35;19.70;;;5.50;87.90;;;;;;5013995;28;20026;-29
2022/01/16 09:02:14;;;;;;;31.15;19.73;;;5.50;87.90;;;;;;5013881;28;20026;-29
2022/01/16 09:04:39;;;;;;;27.83;18.42;;;5.50;88.00;;;;;;5013793;28;20026;-30
2022/01/16 09:07:05;;;;;;;28.30;18.30;;;5.60;88.00;;;;;;5013053;28;20083;-31
2022/01/16 09:09:31;;;;;;;30.73;18.40;;;5.60;87.90;;;;;;5013923;28;20097;-31
2022/01/16 09:11:57;;;;;;;28.20;18.23;;;5.60;87.80;;;;;;5029033;28;20030;-32
2022/01/16 09:14:22;;;;;;;27.27;17.50;;;5.70;87.80;;;;;;5013520;28;20029;-30
2022/01/16 09:16:48;;;;;;;27.95;18.95;;;5.70;87.80;;;;;;5013772;28;20101;-30
2022/01/16 09:19:14;;;;;;;26.23;16.90;;;5.70;87.70;;;;;;5013691;28;20022;-31
2022/01/16 09:21:39;;;;;;;25.92;16.45;;;5.70;87.70;;;;;;5013584;28;20014;-30
2022/01/16 09:24:05;;;;;;;26.33;16.73;;;5.80;87.80;;;;;;5013705;28;20026;-31
2022/01/16 09:26:31;;;;;;;25.17;16.60;;;5.80;87.70;;;;;;5013607;28;20334;-29
2022/01/16 09:28:57;;;;;;;30.25;18.42;;;5.90;87.70;;;;;;5013479;28;20101;-30
2022/01/16 09:31:22;;;;;;;27.45;17.48;;;5.90;87.60;;;;;;5013449;28;20367;-31
2022/01/16 09:33:48;;;;;;;24.80;16.10;;;5.90;87.60;;;;;;5013200;28;20029;-29
2022/01/16 09:36:13;;;;;;;26.73;17.50;;;6.00;87.70;;;;;;5013360;28;20033;-28
2022/01/16 09:38:39;;;;;;;26.13;16.58;;;6.00;87.60;;;;;;5013568;28;20057;-29
2022/01/16 09:41:05;;;;;;;32.97;19.80;;;6.00;87.50;;;;;;5013263;28;20026;-30
2022/01/16 09:43:33;;;;;;;27.40;17.35;;;6.00;87.40;;;;;;5013296;28;20018;-30
2022/01/16 09:45:59;;;;;;;31.13;18.60;;;6.00;87.50;;;;;;5013156;28;20018;-29
2022/01/16 09:48:25;;;;;;;28.08;18.25;;;6.00;87.50;;;;;;5013084;28;20026;-30
2022/01/16 09:50:51;;;;;;;33.13;20.05;;;6.00;87.50;;;;;;5013191;28;20045;-31
2022/01/16 09:53:17;;;;;;;29.73;18.38;;;6.00;87.60;;;;;;5013192;28;20030;-31
2022/01/16 09:55:43;;;;;;;30.88;19.48;;;6.00;87.70;;;;;;5013179;28;20466;-30
2022/01/16 09:58:09;;;;;;;30.85;18.98;;;6.00;87.70;;;;;;5013368;28;20026;-33
2022/01/16 10:00:35;;;;;;;37.55;21.80;;;6.10;87.80;;;;;;5013037;28;20026;-30
2022/01/16 10:03:00;;;;;;;37.17;19.98;;;6.10;87.90;;;;;;5012995;28;20034;-30
2022/01/16 10:05:29;;;;;;;33.03;19.70;;;6.10;87.90;;;;;;5012940;28;20026;-34
2022/01/16 10:07:56;;;;;;;35.72;21.08;;;6.10;87.90;;;;;;5013149;28;20470;-30
2022/01/16 10:10:32;;;;;;;34.80;21.50;;;6.10;88.00;;;;;;5012912;28;20018;-29
2022/01/16 10:13:07;;;;;;;31.95;18.88;;;6.10;88.10;;;;;;5011584;28;20403;-28
2022/01/16 10:15:33;;;;;;;37.38;20.80;;;6.10;88.10;;;;;;5012789;28;20026;-29
2022/01/16 10:18:03;;;;;;;38.20;20.63;;;6.10;88.20;;;;;;5012871;28;20030;-30
2022/01/16 10:20:41;;;;;;;32.35;18.77;;;6.10;88.20;;;;;;5016727;28;20126;-33
2022/01/16 10:23:16;;;;;;;35.95;20.95;;;6.20;88.40;;;;;;5017015;28;20026;-31
2022/01/16 10:25:45;;;;;;;37.88;22.15;;;6.20;88.40;;;;;;5016854;28;20029;-30
2022/01/16 10:28:23;;;;;;;38.15;20.45;;;6.20;88.40;;;;;;5016690;28;20071;-29
2022/01/16 10:30:54;;;;;;;38.05;22.48;;;6.20;88.50;;;;;;5016753;28;20065;-35
2022/01/16 10:33:23;;;;;;;45.05;23.58;;;6.20;88.60;;;;;;5016849;28;20470;-31
2022/01/16 10:35:51;;;;;;;37.55;21.02;;;6.20;88.70;;;;;;5016341;28;20049;-28
2022/01/16 10:38:19;;;;;;;48.33;26.02;;;6.20;88.70;;;;;;5016555;28;20475;-29
2022/01/16 10:40:50;;;;;;;47.58;25.02;;;6.20;88.80;;;;;;5016826;28;20026;-29
2022/01/16 10:43:36;;;;;;;45.75;24.50;;;6.20;88.70;;;;;;5016569;28;20489;-29
2022/01/16 10:46:02;;;;;;;43.05;23.08;;;6.20;88.80;;;;;;5016589;28;20378;-30
2022/01/16 10:48:27;;;;;;;42.40;23.50;;;6.20;88.80;;;;;;5016324;28;20032;-30
2022/01/16 10:50:53;;;;;;;45.35;23.88;;;6.20;88.90;;;;;;5016261;28;20036;-29
2022/01/16 10:53:24;;;;;;;42.97;22.58;;;6.20;88.90;;;;;;5016550;28;20482;-31
2022/01/16 10:55:57;;;;;;;44.42;24.85;;;6.20;88.90;;;;;;5016268;28;20032;-30
2022/01/16 10:58:26;;;;;;;48.28;24.30;;;6.30;89.00;;;;;;5016221;28;20026;-31
2022/01/16 11:00:54;;;;;;;43.00;23.52;;;6.30;89.00;;;;;;5016151;28;20030;-33
2022/01/16 11:03:21;;;;;;;42.88;23.33;;;6.30;89.00;;;;;;5031237;28;20014;-31
2022/01/16 11:05:49;;;;;;;49.63;25.63;;;6.30;89.00;;;;;;5016320;28;20112;-29
2022/01/16 11:08:20;;;;;;;42.88;22.90;;;6.30;89.70;;;;;;5015891;28;20060;-29
2022/01/16 11:10:51;;;;;;;46.88;24.98;;;6.30;89.00;;;;;;5015684;28;20033;-29
2022/01/16 11:13:23;;;;;;;46.50;25.17;;;6.40;89.10;;;;;;5016081;28;20077;-29
2022/01/16 11:15:52;;;;;;;48.25;25.08;;;6.40;89.00;;;;;;5015771;28;20025;-29
2022/01/16 11:18:19;;;;;;;48.78;27.42;;;6.40;89.00;;;;;;5015582;28;20022;-29
2022/01/16 11:20:56;;;;;;;51.33;26.58;;;6.30;89.00;;;;;;5015772;28;20025;-28
2022/01/16 11:25:54;;;;;;;47.40;25.52;;;6.40;89.10;;;;;;5015981;28;20103;-30
2022/01/16 11:28:20;;;;;;;49.53;25.58;;;6.40;89.10;;;;;;5015626;28;20030;-30
2022/01/16 11:30:49;;;;;;;48.08;24.90;;;6.40;89.20;;;;;;5014493;28;20037;-29
2022/01/16 11:33:16;;;;;;;52.78;26.95;;;6.40;89.20;;;;;;5015634;28;20021;-30
2022/01/16 11:36:13;;;;;;;53.65;27.52;;;6.50;89.20;;;;;;5015331;28;20402;-29
2022/01/16 11:38:44;;;;;;;52.83;27.80;;;6.40;89.10;;;;;;5015271;28;20105;-30
2022/01/16 11:41:19;;;;;;;49.50;26.38;;;6.50;89.10;;;;;;5015411;28;20107;-30
2022/01/16 11:43:49;;;;;;;55.22;27.95;;;6.50;89.10;;;;;;5015474;28;20024;-30
2022/01/16 11:46:22;;;;;;;48.53;25.30;;;6.50;89.00;;;;;;5015413;28;20037;-31
2022/01/16 11:48:55;;;;;;;52.67;28.45;;;6.50;89.00;;;;;;5015529;28;20093;-30
2022/01/16 11:51:35;;;;;;;50.70;26.25;;;6.50;89.00;;;;;;5014009;28;20025;-30
2022/01/16 11:54:08;;;;;;;52.28;25.98;;;6.60;89.00;;;;;;5015418;28;20022;-30
2022/01/16 11:56:40;;;;;;;52.28;26.48;;;6.60;89.00;;;;;;5015465;28;20098;-31
2022/01/16 11:59:11;;;;;;;58.15;28.20;;;6.60;88.90;;;;;;5015240;28;20038;-30
2022/01/16 12:01:52;;;;;;;58.08;28.48;;;6.50;88.80;;;;;;5015353;28;20049;-34
2022/01/16 12:04:46;;;;;;;52.38;27.08;;;6.50;88.80;;;;;;5015276;28;20026;-30
2022/01/16 12:07:12;;;;;;;62.60;29.17;;;6.50;88.90;;;;;;5014813;28;20110;-33
2022/01/16 12:09:57;;;;;;;54.63;26.42;;;6.50;88.90;;;;;;5014930;28;20029;-28
2022/01/16 12:12:23;;;;;;;59.15;28.15;;;6.50;89.00;;;;;;5015095;28;20115;-29
2022/01/16 12:15:03;;;;;;;68.35;29.75;;;6.50;89.00;;;;;;5014906;28;20053;-35
2022/01/16 12:17:35;;;;;;;64.63;29.00;;;6.50;88.90;;;;;;5014680;28;20026;-30
2022/01/16 12:22:43;;;;;;;65.57;30.60;;;6.50;88.90;;;;;;5014990;28;20052;-30
2022/01/16 12:25:42;;;;;;;56.83;26.95;;;6.50;88.90;;;;;;5014902;28;20070;-30
2022/01/16 12:28:11;;;;;;;59.40;27.58;;;6.50;89.00;;;;;;5014530;28;20034;-31
2022/01/16 12:30:52;;;;;;;53.33;26.20;;;6.50;89.00;;;;;;5014511;28;20112;-31
2022/01/16 12:33:25;;;;;;;65.50;28.95;;;6.50;89.00;;;;;;5014391;28;20057;-29
2022/01/16 12:35:51;;;;;;;;;;;6.50;89.00;;;;;;5014788;28;20050;-29
2022/01/16 12:38:19;;;;;;;57.42;26.55;;;6.50;89.00;;;;;;5014703;28;20424;-32
2022/01/16 12:40:48;;;;;;;61.75;26.63;;;6.50;89.00;;;;;;5014460;28;20041;-31
2022/01/16 12:43:21;;;;;;;53.58;25.60;;;6.50;89.10;;;;;;5014006;28;20474;-30
2022/01/16 12:45:47;;;;;;;57.75;26.70;;;6.60;89.10;;;;;;5013078;28;20101;-29
2022/01/16 12:48:14;;;;;;;60.78;27.95;;;6.60;89.10;;;;;;5014176;28;20132;-29
2022/01/16 12:50:40;;;;;;;57.88;26.30;;;6.70;89.10;;;;;;5014163;28;20022;-29
2022/01/16 12:53:05;;;;;;;62.78;28.10;;;6.70;89.10;;;;;;5029288;28;20437;-30
2022/01/16 12:55:33;;;;;;;63.92;29.23;;;6.70;89.00;;;;;;5014027;28;20049;-35
2022/01/16 12:58:21;;;;;;;59.85;28.50;;;6.70;89.00;;;;;;5014240;28;20014;-29
2022/01/16 13:00:59;;;;;;;65.68;29.70;;;6.70;89.10;;;;;;5014011;28;20026;-33
2022/01/16 13:03:26;;;;;;;67.47;28.58;;;6.70;89.20;;;;;;5013882;28;20029;-34
2022/01/16 13:05:51;;;;;;;60.55;27.17;;;6.70;89.20;;;;;;5013878;28;20025;-29
2022/01/16 13:08:17;;;;;;;58.55;27.25;;;6.70;89.30;;;;;;5013827;28;20033;-33
2022/01/16 13:10:42;;;;;;;55.97;25.00;;;6.80;89.40;;;;;;5013975;28;20030;-35
2022/01/16 13:13:11;;;;;;;57.50;26.13;;;6.80;89.40;;;;;;5013813;28;20041;-30
2022/01/16 13:15:37;;;;;;;56.20;25.25;;;6.90;89.40;;;;;;5013702;28;20563;-31
2022/01/16 13:18:11;;;;;;;56.30;27.23;;;6.90;89.30;;;;;;5013528;28;20018;-32
2022/01/16 13:20:36;;;;;;;53.35;25.38;;;7.00;89.30;;;;;;5013615;28;20054;-36
2022/01/16 13:23:02;;;;;;;59.85;28.08;;;7.00;89.20;;;;;;5013659;28;20056;-33
2022/01/16 13:25:29;;;;;;;62.22;28.55;;;7.00;89.20;;;;;;5013616;28;20072;-30
2022/01/16 13:27:56;;;;;;;60.25;27.35;;;7.10;89.20;;;;;;5013739;28;20029;-31